createdAt,value
2018-10-18T00:08:14.492Z,13.03
2018-10-18T00:28:56.671Z,12.57
2018-10-18T00:49:35.938Z,14.37
2018-10-18T01:10:12.133Z,20.60
2018-10-18T01:30:58.460Z,16.67
2018-10-18T01:51:37.088Z,12.43
2018-10-18T02:12:21.308Z,12.17
2018-10-18T02:33:02.409Z,11.70
2018-10-18T02:53:36.452Z,13.10
2018-10-18T03:14:16.948Z,23.70
2018-10-18T03:34:54.062Z,16.93
2018-10-18T03:55:33.328Z,15.13
2018-10-18T04:16:15.666Z,20.17
2018-10-18T04:36:55.508Z,17.07
2018-10-18T04:57:32.354Z,17.50
2018-10-18T05:18:10.389Z,17.60
2018-10-18T05:38:48.739Z,23.13
2018-10-18T05:59:31.261Z,21.13
2018-10-18T06:20:07.270Z,40.43
2018-10-18T06:40:46.530Z,82.43
2018-10-18T07:01:25.803Z,132.33
2018-10-18T07:22:01.996Z,148.97
2018-10-18T07:42:39.412Z,165.00
2018-10-18T08:03:18.683Z,152.40
2018-10-18T08:23:59.790Z,127.43
2018-10-18T08:44:41.394Z,110.63
2018-10-18T09:05:23.690Z,108.07
2018-10-18T09:26:04.656Z,98.03
2018-10-18T09:46:42.077Z,98.17
2018-10-18T10:07:19.191Z,99.87
2018-10-18T10:27:54.464Z,96.87
2018-10-18T10:48:36.800Z,93.53
2018-10-18T11:09:18.651Z,92.43
2018-10-18T11:29:54.472Z,82.63
2018-10-18T11:50:30.608Z,96.57
2018-10-18T12:11:04.709Z,74.17
2018-10-18T12:31:42.989Z,78.30
2018-10-18T12:52:22.257Z,78.53
2018-10-18T13:12:59.409Z,73.37
2018-10-18T13:33:39.871Z,68.00
2018-10-18T13:54:23.129Z,63.50
2018-10-18T14:14:57.182Z,69.17
2018-10-18T14:35:37.669Z,64.43
2018-10-18T14:56:17.859Z,70.07
2018-10-18T15:16:57.170Z,71.07
2018-10-18T15:37:37.702Z,85.97
2018-10-18T15:58:12.579Z,78.60
2018-10-18T16:18:50.924Z,96.40
2018-10-18T16:39:34.517Z,86.43
2018-10-18T17:00:11.679Z,88.23
2018-10-18T17:20:51.953Z,82.27
2018-10-18T17:41:34.130Z,75.93
2018-10-18T18:02:14.383Z,76.87
2018-10-18T18:22:49.627Z,59.43
2018-10-18T18:43:24.874Z,47.73
2018-10-18T19:04:08.124Z,62.37
2018-10-18T19:24:44.324Z,50.50
2018-10-18T19:45:32.834Z,58.53
2018-10-18T20:06:12.066Z,53.97
2018-10-18T20:26:50.155Z,58.47
2018-10-18T20:47:29.455Z,50.67
2018-10-18T21:08:12.640Z,55.30
2018-10-18T21:28:50.058Z,48.77
2018-10-18T21:49:29.338Z,48.40
2018-10-18T22:10:11.662Z,45.03
2018-10-18T22:30:50.930Z,42.80
2018-10-18T22:51:33.006Z,44.40
2018-10-18T23:12:19.597Z,43.27
2018-10-18T23:32:56.762Z,40.43
2018-10-18T23:53:38.129Z,47.90
